Terminal Aerodrome Forecast
Issued by NWS Upton, NY

Home | Current Version | Previous Version | Text Only | Print | Product List | Glossary On
Versions: 1 2 3 4 5 6 7 8 9 10 11 12 13 14 15 16 17 18 19 20 21 22 23 24 25 26 27 28 29 30 31 32 33 34 35
758
FTUS41 KOKX 180031 AAA
TAFJFK
TAF AMD
KJFK 180031Z 1801/1906 03006KT 1/2SM -SN FG BKN005 OVC012
     FM180200 11005KT 1/2SM SN FG OVC003
      TEMPO 1802/1806 1SM -SNRA BR OVC006
     FM180600 35005KT 1/2SM SN FG OVC005
     FM180900 32012KT P6SM SCT008 BKN060
     FM181200 32015G24KT P6SM FEW035
     FM181900 28010KT P6SM SKC
     FM190000 23005KT P6SM SKC=

USA.gov is the U.S. government's official web portal to all federal, state and local government web resources and services.